Observation data for Friona on 01/13/2018      Previous  Date  Next       Current Mesonet Observations  Soil Data  Daily Summary Page  Observations in Plain Language
KFAS 130600Z 01005KT M04/M13 A3042 RMK A01 T10401126  RH  051%=      5-min Rain = 0
KFAS 130605Z 02005KT M05/M13 A3042 RMK A01 T10471129  RH  053%=      5-min Rain = 0
KFAS 130610Z 04006KT M05/M13 A3042 RMK A01 T10481128  RH  053%=      5-min Rain = 0
KFAS 130615Z 05005KT M05/M13 A3042 RMK A01 T10471129  RH  053%=      5-min Rain = 0
KFAS 130620Z 05005KT M05/M13 A3042 RMK A01 T10481127  RH  054%=      5-min Rain = 0
KFAS 130625Z 07004KT M05/M12 A3042 RMK A01 T10481124  RH  055%=      5-min Rain = 0
KFAS 130630Z 07003KT M06/M13 A3042 RMK A01 T10551131  RH  055%=      5-min Rain = 0
KFAS 130635Z 07003KT M06/M13 A3041 RMK A01 T10591129  RH  057%=      5-min Rain = 0
KFAS 130640Z 06003KT M06/M13 A3041 RMK A01 T10581129  RH  057%=      5-min Rain = 0
KFAS 130645Z 06001KT M06/M13 A3041 RMK A01 T10581129  RH  057%=      5-min Rain = 0
KFAS 130650Z 09002KT M06/M13 A3041 RMK A01 T10581128  RH  058%=      5-min Rain = 0
KFAS 130655Z 06002KT M06/M13 A3041 RMK A01 T10561126  RH  058%=      5-min Rain = 0
KFAS 130700Z 06001KT M05/M13 A3041 RMK A01 T10541125  RH  057%=      5-min Rain = 0
KFAS 130705Z 05001KT M06/M13 A3041 RMK A01 T10581128  RH  057%=      5-min Rain = 0
KFAS 130710Z 03001KT M06/M13 A304 RMK A01 T10581125  RH  059%=      5-min Rain = 0
KFAS 130715Z 33001KT M06/M13 A3041 RMK A01 T10601130  RH  057%=      5-min Rain = 0
KFAS 130720Z 27002KT M07/M13 A304 RMK A01 T10661130  RH  060%=      5-min Rain = 0
KFAS 130725Z 26002KT M07/M13 A304 RMK A01 T10661129  RH  060%=      5-min Rain = 0
KFAS 130730Z 27002KT M07/M13 A304 RMK A01 T10691128  RH  062%=      5-min Rain = 0
KFAS 130735Z 29002KT M07/M13 A304 RMK A01 T10681127  RH  062%=      5-min Rain = 0
KFAS 130740Z 28003KT M07/M13 A304 RMK A01 T10691129  RH  062%=      5-min Rain = 0
KFAS 130745Z 28003KT M07/M13 A304 RMK A01 T10731128  RH  064%=      5-min Rain = 0
KFAS 130750Z 27004KT M07/M13 A304 RMK A01 T10741128  RH  065%=      5-min Rain = 0
KFAS 130755Z 26006KT M08/M13 A304 RMK A01 T10791130  RH  067%=      5-min Rain = 0
KFAS 130800Z 27005KT M08/M13 A304 RMK A01 T10821130  RH  068%=      5-min Rain = 0
KFAS 130805Z 26005KT M08/M13 A304 RMK A01 T10801130  RH  066%=      5-min Rain = 0
KFAS 130810Z 26006KT M08/M13 A3041 RMK A01 T10821134  RH  066%=      5-min Rain = 0
KFAS 130815Z 26006KT M09/M13 A3041 RMK A01 T10851133  RH  068%=      5-min Rain = 0
KFAS 130820Z 26005KT M08/M13 A3041 RMK A01 T10841132  RH  068%=      5-min Rain = 0
KFAS 130825Z 27006KT M08/M13 A3041 RMK A01 T10841133  RH  067%=      5-min Rain = 0
KFAS 130830Z 27006KT M08/M13 A3041 RMK A01 T10841131  RH  068%=      5-min Rain = 0
KFAS 130835Z 28005KT M08/M13 A3041 RMK A01 T10821131  RH  068%=      5-min Rain = 0
KFAS 130840Z 28006KT M08/M13 A3041 RMK A01 T10831132  RH  068%=      5-min Rain = 0
KFAS 130845Z 26006KT M08/M13 A3041 RMK A01 T10841132  RH  068%=      5-min Rain = 0
KFAS 130850Z 27006KT M09/M13 A3041 RMK A01 T10861132  RH  069%=      5-min Rain = 0
KFAS 130855Z 28006KT M09/M13 A3041 RMK A01 T10851131  RH  069%=      5-min Rain = 0
KFAS 130900Z 28005KT M09/M13 A3042 RMK A01 T10851131  RH  069%=      5-min Rain = 0
KFAS 130905Z 28006KT M09/M13 A3042 RMK A01 T10881134  RH  069%=      5-min Rain = 0
KFAS 130910Z 27006KT M09/M13 A3042 RMK A01 T10881132  RH  070%=      5-min Rain = 0
KFAS 130915Z 27006KT M09/M13 A3042 RMK A01 T10871134  RH  068%=      5-min Rain = 0
KFAS 130920Z 27005KT M09/M14 A3042 RMK A01 T10901135  RH  069%=      5-min Rain = 0
KFAS 130925Z 27005KT M09/M13 A3043 RMK A01 T10901134  RH  070%=      5-min Rain = 0
KFAS 130930Z 27006KT M09/M13 A3042 RMK A01 T10871131  RH  070%=      5-min Rain = 0
KFAS 130935Z 28005KT M09/M13 A3042 RMK A01 T10851130  RH  069%=      5-min Rain = 0
KFAS 130940Z 27005KT M09/M13 A3043 RMK A01 T10851131  RH  069%=      5-min Rain = 0
KFAS 130945Z 27005KT M09/M13 A3043 RMK A01 T10861131  RH  070%=      5-min Rain = 0
KFAS 130950Z 26006KT M09/M13 A3043 RMK A01 T10881132  RH  070%=      5-min Rain = 0
KFAS 130955Z 26006KT M09/M13 A3043 RMK A01 T10891132  RH  071%=      5-min Rain = 0
KFAS 131000Z 27004KT M09/M13 A3043 RMK A01 T10871131  RH  070%=      5-min Rain = 0
KFAS 131005Z 26005KT M09/M13 A3044 RMK A01 T10871131  RH  070%=      5-min Rain = 0
KFAS 131010Z 27006KT M09/M13 A3044 RMK A01 T10861130  RH  070%=      5-min Rain = 0
KFAS 131015Z 27005KT M09/M13 A3044 RMK A01 T10851130  RH  069%=      5-min Rain = 0
KFAS 131020Z 26005KT M09/M13 A3044 RMK A01 T10851131  RH  069%=      5-min Rain = 0
KFAS 131025Z 26005KT M09/M13 A3043 RMK A01 T10871132  RH  069%=      5-min Rain = 0
KFAS 131030Z 26005KT M09/M13 A3043 RMK A01 T10881132  RH  070%=      5-min Rain = 0
KFAS 131035Z 26005KT M09/M13 A3043 RMK A01 T10881132  RH  070%=      5-min Rain = 0
KFAS 131040Z 27004KT M09/M13 A3043 RMK A01 T10881131  RH  070%=      5-min Rain = 0
KFAS 131045Z 26005KT M09/M13 A3043 RMK A01 T10851130  RH  070%=      5-min Rain = 0
KFAS 131050Z 27004KT M09/M13 A3043 RMK A01 T10851130  RH  069%=      5-min Rain = 0
KFAS 131055Z 27004KT M08/M13 A3043 RMK A01 T10831129  RH  069%=      5-min Rain = 0
KFAS 131100Z 27004KT M08/M13 A3043 RMK A01 T10821128  RH  069%=      5-min Rain = 0
KFAS 131105Z 27004KT M08/M13 A3042 RMK A01 T10821129  RH  069%=      5-min Rain = 0
KFAS 131110Z 27004KT M08/M13 A3042 RMK A01 T10841130  RH  069%=      5-min Rain = 0
KFAS 131115Z 28004KT M09/M13 A3042 RMK A01 T10851129  RH  070%=      5-min Rain = 0
KFAS 131120Z 28003KT M09/M13 A3042 RMK A01 T10871132  RH  070%=      5-min Rain = 0
KFAS 131125Z 28004KT M09/M13 A3042 RMK A01 T10911133  RH  071%=      5-min Rain = 0
KFAS 131130Z 28003KT M09/M13 A3042 RMK A01 T10921132  RH  072%=      5-min Rain = 0
KFAS 131135Z 28004KT M09/M13 A3042 RMK A01 T10901132  RH  072%=      5-min Rain = 0
KFAS 131140Z 26004KT M09/M13 A3042 RMK A01 T10911133  RH  071%=      5-min Rain = 0
KFAS 131145Z 24005KT M10/M14 A3042 RMK A01 T10971137  RH  072%=      5-min Rain = 0
KFAS 131150Z 25006KT M10/M13 A3042 RMK A01 T10991134  RH  075%=      5-min Rain = 0
KFAS 131155Z 25007KT M10/M13 A3042 RMK A01 T10981134  RH  075%=      5-min Rain = 0
KFAS 131200Z 25007KT M10/M13 A3042 RMK A01 T10971131  RH  076%=      5-min Rain = 0
KFAS 131205Z 27005KT M09/M13 A3043 RMK A01 T10931128  RH  076%=      5-min Rain = 0
KFAS 131210Z 27005KT M09/M13 A3043 RMK A01 T10881126  RH  074%=      5-min Rain = 0
KFAS 131215Z 27005KT M09/M13 A3043 RMK A01 T10891128  RH  073%=      5-min Rain = 0
KFAS 131220Z 30005KT M09/M13 A3044 RMK A01 T10901129  RH  073%=      5-min Rain = 0
KFAS 131225Z 30004KT M09/M13 A3043 RMK A01 T10941130  RH  075%=      5-min Rain = 0
KFAS 131230Z 29003KT M09/M13 A3043 RMK A01 T10941129  RH  075%=      5-min Rain = 0
KFAS 131235Z 30002KT M09/M13 A3043 RMK A01 T10931129  RH  075%=      5-min Rain = 0
KFAS 131240Z 33003KT M09/M13 A3044 RMK A01 T10941131  RH  074%=      5-min Rain = 0
KFAS 131245Z 32002KT M10/M13 A3045 RMK A01 T10961131  RH  075%=      5-min Rain = 0
KFAS 131250Z 29002KT M10/M14 A3045 RMK A01 T10971135  RH  073%=      5-min Rain = 0
KFAS 131255Z 22001KT M10/M14 A3045 RMK A01 T10981138  RH  072%=      5-min Rain = 0
KFAS 131300Z 23002KT M10/M14 A3045 RMK A01 T10991135  RH  074%=      5-min Rain = 0
KFAS 131305Z 25003KT M10/M13 A3045 RMK A01 T10951132  RH  074%=      5-min Rain = 0
KFAS 131310Z 24003KT M10/M14 A3045 RMK A01 T10971135  RH  073%=      5-min Rain = 0
KFAS 131315Z 24004KT M10/M14 A3046 RMK A01 T10991136  RH  074%=      5-min Rain = 0
KFAS 131320Z 23004KT M11/M14 A3046 RMK A01 T11051140  RH  075%=      5-min Rain = 0
KFAS 131325Z 23004KT M11/M14 A3046 RMK A01 T11061137  RH  077%=      5-min Rain = 0
KFAS 131330Z 23003KT M10/M14 A3046 RMK A01 T11041135  RH  077%=      5-min Rain = 0
KFAS 131335Z 26002KT M10/M13 A3046 RMK A01 T11011131  RH  078%=      5-min Rain = 0
KFAS 131340Z 30001KT M10/M14 A3047 RMK A01 T11021137  RH  075%=      5-min Rain = 0
KFAS 131345Z 31000KT M10/M14 A3047 RMK A01 T11031135  RH  077%=      5-min Rain = 0
KFAS 131350Z 31000KT M10/M13 A3048 RMK A01 T10981128  RH  078%=      5-min Rain = 0
KFAS 131355Z 07000KT M09/M13 A3048 RMK A01 T10931127  RH  076%=      5-min Rain = 0
KFAS 131400Z 06001KT M09/M13 A3048 RMK A01 T10901128  RH  074%=      5-min Rain = 0
KFAS 131405Z 05001KT M09/M13 A3049 RMK A01 T10911131  RH  072%=      5-min Rain = 0
KFAS 131410Z 04002KT M09/M13 A3049 RMK A01 T10931131  RH  073%=      5-min Rain = 0
KFAS 131415Z 04003KT M09/M13 A3049 RMK A01 T10941131  RH  074%=      5-min Rain = 0
KFAS 131420Z 06003KT M09/M13 A3049 RMK A01 T10941131  RH  074%=      5-min Rain = 0
KFAS 131425Z 06003KT M09/M13 A305 RMK A01 T10921129  RH  074%=      5-min Rain = 0
KFAS 131430Z 05004KT M09/M12 A3049 RMK A01 T10881121  RH  076%=      5-min Rain = 0
KFAS 131435Z 05003KT M08/M12 A305 RMK A01 T10811116  RH  075%=      5-min Rain = 0
KFAS 131440Z 05003KT M08/M12 A305 RMK A01 T10801118  RH  074%=      5-min Rain = 0
KFAS 131445Z 05003KT M08/M11 A305 RMK A01 T10771114  RH  074%=      5-min Rain = 0
KFAS 131450Z 06002KT M07/M11 A305 RMK A01 T10671107  RH  073%=      5-min Rain = 0
KFAS 131455Z 05002KT M06/M11 A305 RMK A01 T10621109  RH  069%=      5-min Rain = 0
KFAS 131500Z 06001KT M06/M11 A305 RMK A01 T10581107  RH  068%=      5-min Rain = 0
KFAS 131505Z 11001KT M05/M11 A305 RMK A01 T10541110  RH  065%=      5-min Rain = 0
KFAS 131510Z 12002KT M05/M11 A305 RMK A01 T10521112  RH  062%=      5-min Rain = 0
KFAS 131515Z 10001KT M05/M11 A305 RMK A01 T10511114  RH  061%=      5-min Rain = 0
KFAS 131520Z 13001KT M05/M11 A305 RMK A01 T10481112  RH  060%=      5-min Rain = 0
KFAS 131525Z 14002KT M04/M11 A305 RMK A01 T10441111  RH  059%=      5-min Rain = 0
KFAS 131530Z 13002KT M04/M11 A305 RMK A01 T10411109  RH  059%=      5-min Rain = 0
KFAS 131535Z 14003KT M04/M11 A3049 RMK A01 T10411108  RH  059%=      5-min Rain = 0
KFAS 131540Z 17003KT M04/M11 A3049 RMK A01 T10381105  RH  060%=      5-min Rain = 0
KFAS 131545Z 17003KT M04/M10 A305 RMK A01 T10361103  RH  059%=      5-min Rain = 0
KFAS 131550Z 17003KT M03/M11 A305 RMK A01 T10341105  RH  058%=      5-min Rain = 0
KFAS 131555Z 17003KT M03/M10 A305 RMK A01 T10311104  RH  057%=      5-min Rain = 0
KFAS 131600Z 17003KT M03/M10 A3051 RMK A01 T10271102  RH  056%=      5-min Rain = 0
KFAS 131605Z 17003KT M02/M10 A3051 RMK A01 T10211100  RH  055%=      5-min Rain = 0
KFAS 131610Z 17003KT M02/M10 A3051 RMK A01 T10161098  RH  054%=      5-min Rain = 0
KFAS 131615Z 20004KT M01/M10 A3051 RMK A01 T10091098  RH  051%=      5-min Rain = 0
KFAS 131620Z 17004KT M00/M10 A3051 RMK A01 T10021099  RH  048%=      5-min Rain = 0
KFAS 131625Z 18005KT 00/M10 A3051 RMK A01 T00041099  RH  046%=      5-min Rain = 0
KFAS 131630Z 18006KT 01/M10 A3051 RMK A01 T00101100  RH  043%=      5-min Rain = 0
KFAS 131635Z 21008KT 02/M10 A3051 RMK A01 T00161103  RH  041%=      5-min Rain = 0
KFAS 131640Z 20008KT 02/M10 A3051 RMK A01 T00211103  RH  039%=      5-min Rain = 0
KFAS 131645Z 20007KT 02/M11 A3051 RMK A01 T00221105  RH  038%=      5-min Rain = 0
KFAS 131650Z 21008KT 03/M10 A3051 RMK A01 T00251104  RH  038%=      5-min Rain = 0
KFAS 131655Z 21008KT 03/M11 A3051 RMK A01 T00281106  RH  037%=      5-min Rain = 0
KFAS 131700Z 21009KT 03/M11 A305 RMK A01 T00291107  RH  036%=      5-min Rain = 0
KFAS 131705Z 20009KT 03/M11 A305 RMK A01 T00321107  RH  035%=      5-min Rain = 0
KFAS 131710Z 20009KT 03/M11 A305 RMK A01 T00341109  RH  034%=      5-min Rain = 0
KFAS 131715Z 21008KT 04/M11 A305 RMK A01 T00361107  RH  034%=      5-min Rain = 0
KFAS 131720Z 21007KT 04/M11 A305 RMK A01 T00381107  RH  034%=      5-min Rain = 0
KFAS 131725Z 20009KT 04/M11 A305 RMK A01 T00421107  RH  033%=      5-min Rain = 0
KFAS 131730Z 20009KT 05/M11 A3049 RMK A01 T00451106  RH  032%=      5-min Rain = 0
KFAS 131735Z 20009KT 05/M11 A3049 RMK A01 T00451105  RH  033%=      5-min Rain = 0
KFAS 131740Z 20009G14KT 05/M10 A3049 RMK A01 T00491103  RH  032%=      5-min Rain = 0
KFAS 131745Z 20010KT 05/M10 A3048 RMK A01 T00531102  RH  032%=      5-min Rain = 0
KFAS 131750Z 19010KT 05/M10 A3048 RMK A01 T00541102  RH  031%=      5-min Rain = 0
KFAS 131755Z 20011KT 06/M10 A3047 RMK A01 T00551102  RH  031%=      5-min Rain = 0
KFAS 131800Z 20009G14KT 06/M10 A3047 RMK A01 T00581101  RH  031%=      5-min Rain = 0
KFAS 131805Z 21010G15KT 06/M10 A3047 RMK A01 T00621099  RH  030%=      5-min Rain = 0
KFAS 131810Z 20010KT 06/M10 A3047 RMK A01 T00641098  RH  030%=      5-min Rain = 0
KFAS 131815Z 20012KT 07/M10 A3046 RMK A01 T00661098  RH  030%=      5-min Rain = 0
KFAS 131820Z 20013KT 07/M10 A3046 RMK A01 T00651099  RH  030%=      5-min Rain = 0
KFAS 131825Z 19012KT 07/M10 A3045 RMK A01 T00671098  RH  030%=      5-min Rain = 0
KFAS 131830Z 20013KT 07/M10 A3045 RMK A01 T00681099  RH  029%=      5-min Rain = 0
KFAS 131835Z 20013KT 07/M10 A3044 RMK A01 T00711098  RH  029%=      5-min Rain = 0
KFAS 131840Z 20013KT 07/M10 A3044 RMK A01 T00711099  RH  028%=      5-min Rain = 0
KFAS 131845Z 20013KT 07/M10 A3043 RMK A01 T00731097  RH  029%=      5-min Rain = 0
KFAS 131850Z 21014KT 08/M09 A3043 RMK A01 T00751093  RH  029%=      5-min Rain = 0
KFAS 131855Z 20014KT 07/M09 A3042 RMK A01 T00741092  RH  030%=      5-min Rain = 0
KFAS 131900Z 20013KT 07/M09 A3043 RMK A01 T00711088  RH  031%=      5-min Rain = 0
KFAS 131905Z 19013G19KT 08/M09 A3042 RMK A01 T00771085  RH  031%=      5-min Rain = 0
KFAS 131910Z 20014KT 08/M09 A3042 RMK A01 T00781085  RH  031%=      5-min Rain = 0
KFAS 131915Z 20013KT 08/M09 A3041 RMK A01 T00791086  RH  030%=      5-min Rain = 0
KFAS 131920Z 20013G18KT 08/M09 A304 RMK A01 T00781086  RH  030%=      5-min Rain = 0
KFAS 131925Z 19014KT 08/M09 A304 RMK A01 T00761089  RH  030%=      5-min Rain = 0
KFAS 131930Z 20015KT 08/M09 A304 RMK A01 T00791086  RH  030%=      5-min Rain = 0
KFAS 131935Z 19013KT 08/M09 A3039 RMK A01 T00761089  RH  030%=      5-min Rain = 0
KFAS 131940Z 18015KT 08/M09 A3039 RMK A01 T00811086  RH  030%=      5-min Rain = 0
KFAS 131945Z 19015KT 09/M09 A3038 RMK A01 T00851086  RH  029%=      5-min Rain = 0
KFAS 131950Z 20015G22KT 09/M09 A3038 RMK A01 T00881086  RH  028%=      5-min Rain = 0
KFAS 131955Z 20015KT 09/M09 A3038 RMK A01 T00891090  RH  027%=      5-min Rain = 0
KFAS 132000Z 20016G21KT 09/M09 A3038 RMK A01 T00881092  RH  027%=      5-min Rain = 0
KFAS 132005Z 19015G20KT 09/M09 A3037 RMK A01 T00891092  RH  027%=      5-min Rain = 0
KFAS 132010Z 21015G20KT 09/M09 A3036 RMK A01 T00931093  RH  026%=      5-min Rain = 0
KFAS 132015Z 19017KT 09/M10 A3035 RMK A01 T00911095  RH  026%=      5-min Rain = 0
KFAS 132020Z 19016KT 09/M09 A3035 RMK A01 T00931093  RH  026%=      5-min Rain = 0
KFAS 132025Z 19017G22KT 09/M09 A3035 RMK A01 T00941093  RH  026%=      5-min Rain = 0
KFAS 132030Z 19017G22KT 10/M09 A3035 RMK A01 T00951092  RH  026%=      5-min Rain = 0
KFAS 132035Z 19017KT 09/M09 A3034 RMK A01 T00941093  RH  026%=      5-min Rain = 0
KFAS 132040Z 19017G22KT 10/M09 A3034 RMK A01 T00951092  RH  026%=      5-min Rain = 0
KFAS 132045Z 19016G23KT 10/M09 A3034 RMK A01 T00961092  RH  026%=      5-min Rain = 0
KFAS 132050Z 20018KT 10/M09 A3033 RMK A01 T00961093  RH  025%=      5-min Rain = 0
KFAS 132055Z 19019G24KT 10/M09 A3033 RMK A01 T00971091  RH  026%=      5-min Rain = 0
KFAS 132100Z 20019G24KT 10/M09 A3032 RMK A01 T00981090  RH  026%=      5-min Rain = 0
KFAS 132105Z 20017G24KT 10/M09 A3032 RMK A01 T01001090  RH  025%=      5-min Rain = 0
KFAS 132110Z 20018G24KT 10/M09 A3032 RMK A01 T01031088  RH  025%=      5-min Rain = 0
KFAS 132115Z 19017KT 10/M09 A3031 RMK A01 T01011088  RH  026%=      5-min Rain = 0
KFAS 132120Z 20019KT 10/M09 A3031 RMK A01 T01011087  RH  026%=      5-min Rain = 0
KFAS 132125Z 19018G23KT 10/M09 A3032 RMK A01 T01031086  RH  025%=      5-min Rain = 0
KFAS 132130Z 20018KT 10/M09 A3031 RMK A01 T01031085  RH  026%=      5-min Rain = 0
KFAS 132135Z 20018G23KT 11/M08 A3031 RMK A01 T01051084  RH  025%=      5-min Rain = 0
KFAS 132140Z 20016G23KT 11/M09 A3031 RMK A01 T01051087  RH  025%=      5-min Rain = 0
KFAS 132145Z 20017G23KT 10/M09 A303 RMK A01 T01041085  RH  025%=      5-min Rain = 0
KFAS 132150Z 20018G23KT 10/M09 A303 RMK A01 T01041085  RH  026%=      5-min Rain = 0
KFAS 132155Z 20018KT 10/M08 A303 RMK A01 T01041084  RH  026%=      5-min Rain = 0
KFAS 132200Z 20018G23KT 10/M08 A303 RMK A01 T01031084  RH  026%=      5-min Rain = 0
KFAS 132205Z 20018G24KT 10/M08 A303 RMK A01 T01031083  RH  026%=      5-min Rain = 0
KFAS 132210Z 19020KT 10/M08 A303 RMK A01 T01031082  RH  026%=      5-min Rain = 0
KFAS 132215Z 20019G24KT 10/M08 A303 RMK A01 T01021083  RH  026%=      5-min Rain = 0
KFAS 132220Z 20018KT 10/M08 A303 RMK A01 T01021083  RH  026%=      5-min Rain = 0
KFAS 132225Z 20018G23KT 10/M08 A303 RMK A01 T01021083  RH  026%=      5-min Rain = 0
KFAS 132230Z 19018KT 10/M08 A303 RMK A01 T01021081  RH  027%=      5-min Rain = 0
KFAS 132235Z 19018G27KT 10/M08 A3029 RMK A01 T01011080  RH  027%=      5-min Rain = 0
KFAS 132240Z 19015KT 10/M08 A3029 RMK A01 T01011081  RH  027%=      5-min Rain = 0
KFAS 132245Z 19018G23KT 10/M08 A3029 RMK A01 T00991082  RH  027%=      5-min Rain = 0
KFAS 132250Z 20018G23KT 10/M08 A3029 RMK A01 T00981082  RH  027%=      5-min Rain = 0
KFAS 132255Z 20017G22KT 10/M08 A3029 RMK A01 T00971082  RH  027%=      5-min Rain = 0
KFAS 132300Z 20018G23KT 10/M08 A3029 RMK A01 T00961082  RH  028%=      5-min Rain = 0
KFAS 132305Z 20017G22KT 10/M08 A3029 RMK A01 T00971082  RH  028%=      5-min Rain = 0
KFAS 132310Z 20016G23KT 10/M08 A3029 RMK A01 T00971082  RH  027%=      5-min Rain = 0
KFAS 132315Z 19016KT 09/M08 A3029 RMK A01 T00941081  RH  028%=      5-min Rain = 0
KFAS 132320Z 19017KT 09/M08 A3029 RMK A01 T00931082  RH  028%=      5-min Rain = 0
KFAS 132325Z 19017G23KT 09/M08 A3029 RMK A01 T00921081  RH  029%=      5-min Rain = 0
KFAS 132330Z 19016KT 09/M08 A3028 RMK A01 T00911082  RH  029%=      5-min Rain = 0
KFAS 132335Z 19016KT 09/M08 A3028 RMK A01 T00901082  RH  029%=      5-min Rain = 0
KFAS 132340Z 19015KT 09/M08 A3028 RMK A01 T00881082  RH  029%=      5-min Rain = 0
KFAS 132345Z 19014KT 09/M08 A3028 RMK A01 T00851083  RH  029%=      5-min Rain = 0
KFAS 132350Z 18014KT 08/M08 A3028 RMK A01 T00821083  RH  030%=      5-min Rain = 0
KFAS 132355Z 18014KT 08/M08 A3027 RMK A01 T00791084  RH  031%=      5-min Rain = 0
KFAS 140000Z 18013KT 08/M08 A3027 RMK A01 T00751084  RH  031%=      5-min Rain = 0
KFAS 140005Z 18013KT 07/M09 A3027 RMK A01 T00731085  RH  031%=      5-min Rain = 0
KFAS 140010Z 18013KT 07/M09 A3027 RMK A01 T00701085  RH  032%=      5-min Rain = 0
KFAS 140015Z 18013KT 07/M09 A3027 RMK A01 T00681086  RH  032%=      5-min Rain = 0
KFAS 140020Z 18012KT 07/M09 A3027 RMK A01 T00671087  RH  032%=      5-min Rain = 0
KFAS 140025Z 18011KT 06/M09 A3027 RMK A01 T00641088  RH  033%=      5-min Rain = 0
KFAS 140030Z 18012KT 06/M09 A3027 RMK A01 T00621088  RH  033%=      5-min Rain = 0
KFAS 140035Z 18011KT 06/M09 A3028 RMK A01 T00591088  RH  034%=      5-min Rain = 0
KFAS 140040Z 18010KT 06/M09 A3028 RMK A01 T00551088  RH  035%=      5-min Rain = 0
KFAS 140045Z 18010KT 05/M09 A3028 RMK A01 T00521090  RH  035%=      5-min Rain = 0
KFAS 140050Z 18011KT 05/M09 A3028 RMK A01 T00511090  RH  035%=      5-min Rain = 0
KFAS 140055Z 18010KT 05/M09 A3028 RMK A01 T00491090  RH  036%=      5-min Rain = 0
KFAS 140100Z 18010KT 05/M09 A3028 RMK A01 T00461090  RH  036%=      5-min Rain = 0
KFAS 140105Z 18010KT 04/M09 A3028 RMK A01 T00441090  RH  037%=      5-min Rain = 0
KFAS 140110Z 18010KT 04/M09 A3028 RMK A01 T00421089  RH  038%=      5-min Rain = 0
KFAS 140115Z 18011KT 04/M09 A3028 RMK A01 T00431088  RH  038%=      5-min Rain = 0
KFAS 140120Z 19012KT 04/M09 A3028 RMK A01 T00431088  RH  038%=      5-min Rain = 0
KFAS 140125Z 18012KT 04/M09 A3028 RMK A01 T00431088  RH  038%=      5-min Rain = 0
KFAS 140130Z 19013KT 04/M09 A3028 RMK A01 T00421089  RH  038%=      5-min Rain = 0
KFAS 140135Z 19013KT 04/M09 A3028 RMK A01 T00421089  RH  038%=      5-min Rain = 0
KFAS 140140Z 18013KT 04/M09 A3028 RMK A01 T00411089  RH  038%=      5-min Rain = 0
KFAS 140145Z 18013KT 04/M09 A3028 RMK A01 T00401089  RH  038%=      5-min Rain = 0
KFAS 140150Z 18013KT 04/M09 A3028 RMK A01 T00401092  RH  037%=      5-min Rain = 0
KFAS 140155Z 18012KT 04/M09 A3028 RMK A01 T00381092  RH  038%=      5-min Rain = 0
KFAS 140200Z 18012KT 04/M09 A3028 RMK A01 T00371091  RH  038%=      5-min Rain = 0
KFAS 140205Z 18012KT 04/M09 A3028 RMK A01 T00361092  RH  039%=      5-min Rain = 0
KFAS 140210Z 18011KT 03/M09 A3028 RMK A01 T00341094  RH  038%=      5-min Rain = 0
KFAS 140215Z 17011KT 03/M10 A3028 RMK A01 T00321095  RH  039%=      5-min Rain = 0
KFAS 140220Z 17011KT 03/M10 A3028 RMK A01 T00301095  RH  039%=      5-min Rain = 0
KFAS 140225Z 18010KT 03/M10 A3027 RMK A01 T00271095  RH  040%=      5-min Rain = 0
KFAS 140230Z 18010KT 03/M09 A3028 RMK A01 T00251094  RH  041%=      5-min Rain = 0
KFAS 140235Z 18010KT 02/M09 A3028 RMK A01 T00231093  RH  042%=      5-min Rain = 0
KFAS 140240Z 18011KT 02/M09 A3028 RMK A01 T00221093  RH  042%=      5-min Rain = 0
KFAS 140245Z 18012KT 02/M09 A3028 RMK A01 T00231093  RH  042%=      5-min Rain = 0
KFAS 140250Z 18011KT 02/M09 A3028 RMK A01 T00241093  RH  042%=      5-min Rain = 0
KFAS 140255Z 18011KT 02/M09 A3028 RMK A01 T00241094  RH  041%=      5-min Rain = 0
KFAS 140300Z 18011KT 02/M10 A3027 RMK A01 T00231095  RH  041%=      5-min Rain = 0
KFAS 140305Z 18011KT 02/M10 A3028 RMK A01 T00221096  RH  041%=      5-min Rain = 0
KFAS 140310Z 18011KT 02/M10 A3027 RMK A01 T00211095  RH  042%=      5-min Rain = 0
KFAS 140315Z 18012KT 02/M09 A3027 RMK A01 T00201094  RH  043%=      5-min Rain = 0
KFAS 140320Z 19012KT 02/M09 A3027 RMK A01 T00201094  RH  042%=      5-min Rain = 0
KFAS 140325Z 19012KT 02/M10 A3027 RMK A01 T00211095  RH  042%=      5-min Rain = 0
KFAS 140330Z 18012KT 02/M10 A3027 RMK A01 T00201095  RH  042%=      5-min Rain = 0
KFAS 140335Z 18011KT 02/M10 A3027 RMK A01 T00201097  RH  042%=      5-min Rain = 0
KFAS 140340Z 18011KT 02/M10 A3027 RMK A01 T00201098  RH  041%=      5-min Rain = 0
KFAS 140345Z 18011KT 02/M10 A3027 RMK A01 T00201099  RH  041%=      5-min Rain = 0
KFAS 140350Z 18011KT 02/M10 A3027 RMK A01 T00201099  RH  041%=      5-min Rain = 0
KFAS 140355Z 18011KT 02/M10 A3027 RMK A01 T00191100  RH  041%=      5-min Rain = 0
KFAS 140400Z 18011KT 02/M10 A3027 RMK A01 T00181099  RH  041%=      5-min Rain = 0
KFAS 140405Z 18010KT 02/M10 A3027 RMK A01 T00181099  RH  041%=      5-min Rain = 0
KFAS 140410Z 18009KT 02/M10 A3028 RMK A01 T00171100  RH  041%=      5-min Rain = 0
KFAS 140415Z 18008KT 02/M10 A3028 RMK A01 T00151100  RH  042%=      5-min Rain = 0
KFAS 140420Z 18007KT 01/M10 A3028 RMK A01 T00121102  RH  042%=      5-min Rain = 0
KFAS 140425Z 17008KT 01/M10 A3028 RMK A01 T00111102  RH  042%=      5-min Rain = 0
KFAS 140430Z 17006KT 01/M10 A3029 RMK A01 T00081103  RH  043%=      5-min Rain = 0
KFAS 140435Z 18006KT 01/M10 A3029 RMK A01 T00051103  RH  044%=      5-min Rain = 0
KFAS 140440Z 17006KT 00/M10 A303 RMK A01 T00041103  RH  044%=      5-min Rain = 0
KFAS 140445Z 17007KT 00/M10 A303 RMK A01 T00021104  RH  045%=      5-min Rain = 0
KFAS 140450Z 18007KT 00/10 A303 RMK A01 T00-00-103  RH  046%=      5-min Rain = 0
KFAS 140455Z 18006KT M00/M10 A303 RMK A01 T10021103  RH  046%=      5-min Rain = 0
KFAS 140500Z 17005KT M00/M10 A3031 RMK A01 T10021104  RH  046%=      5-min Rain = 0
KFAS 140505Z 15003KT M01/M11 A3031 RMK A01 T10051106  RH  046%=      5-min Rain = 0
KFAS 140510Z 14003KT M01/M11 A3032 RMK A01 T10061108  RH  046%=      5-min Rain = 0
KFAS 140515Z 15005KT M01/M11 A3032 RMK A01 T10071109  RH  046%=      5-min Rain = 0
KFAS 140520Z 15004KT M01/M11 A3032 RMK A01 T10111110  RH  047%=      5-min Rain = 0
KFAS 140525Z 14003KT M01/M11 A3032 RMK A01 T10111109  RH  047%=      5-min Rain = 0
KFAS 140530Z 13003KT M01/M11 A3032 RMK A01 T10121110  RH  047%=      5-min Rain = 0
KFAS 140535Z 13004KT M01/M11 A3032 RMK A01 T10131110  RH  047%=      5-min Rain = 0
KFAS 140540Z 14004KT M02/M11 A3032 RMK A01 T10151112  RH  048%=      5-min Rain = 0
KFAS 140545Z 16005KT M02/M11 A3031 RMK A01 T10181112  RH  048%=      5-min Rain = 0
KFAS 140550Z 16006KT M03/M11 A3031 RMK A01 T10251112  RH  051%=      5-min Rain = 0
KFAS 140555Z 16006KT M03/M11 A3031 RMK A01 T10271111  RH  052%=      5-min Rain = 0

Page generated in 0.015 seconds.